sensor_id;sensor_type;location;lat;lon;timestamp;temperature;humidity
23291;DHT22;11814;44.686;10.842;2023-06-14T00:00:20;20.00;99.90
23291;DHT22;11814;44.686;10.842;2023-06-14T00:02:46;20.00;99.90
23291;DHT22;11814;44.686;10.842;2023-06-14T00:05:12;20.00;99.90
23291;DHT22;11814;44.686;10.842;2023-06-14T00:07:39;20.00;99.90
23291;DHT22;11814;44.686;10.842;2023-06-14T00:10:10;20.00;99.90
23291;DHT22;11814;44.686;10.842;2023-06-14T00:12:36;20.00;99.90
23291;DHT22;11814;44.686;10.842;2023-06-14T00:15:03;20.00;99.90
23291;DHT22;11814;44.686;10.842;2023-06-14T00:17:28;20.00;99.90
23291;DHT22;11814;44.686;10.842;2023-06-14T00:19:58;20.00;99.90
23291;DHT22;11814;44.686;10.842;2023-06-14T00:22:25;20.00;99.90
23291;DHT22;11814;44.686;10.842;2023-06-14T00:24:51;20.00;99.90
23291;DHT22;11814;44.686;10.842;2023-06-14T00:27:17;20.00;99.90
23291;DHT22;11814;44.686;10.842;2023-06-14T00:29:43;20.00;99.90
23291;DHT22;11814;44.686;10.842;2023-06-14T00:32:09;19.90;99.90
23291;DHT22;11814;44.686;10.842;2023-06-14T00:34:34;19.90;99.90
23291;DHT22;11814;44.686;10.842;2023-06-14T00:37:00;19.80;99.90
23291;DHT22;11814;44.686;10.842;2023-06-14T00:39:26;19.90;99.90
23291;DHT22;11814;44.686;10.842;2023-06-14T00:41:52;19.80;99.90
23291;DHT22;11814;44.686;10.842;2023-06-14T00:44:18;19.80;99.90
23291;DHT22;11814;44.686;10.842;2023-06-14T00:46:47;19.80;99.90
23291;DHT22;11814;44.686;10.842;2023-06-14T00:49:17;19.70;99.90
23291;DHT22;11814;44.686;10.842;2023-06-14T00:51:43;19.70;99.90
23291;DHT22;11814;44.686;10.842;2023-06-14T00:54:09;19.60;99.90
23291;DHT22;11814;44.686;10.842;2023-06-14T00:56:36;19.60;99.90
23291;DHT22;11814;44.686;10.842;2023-06-14T00:59:03;19.60;99.90
23291;DHT22;11814;44.686;10.842;2023-06-14T01:01:30;19.60;99.90
23291;DHT22;11814;44.686;10.842;2023-06-14T01:03:58;19.50;99.90
23291;DHT22;11814;44.686;10.842;2023-06-14T01:09:31;19.50;99.90
23291;DHT22;11814;44.686;10.842;2023-06-14T01:12:07;19.50;99.90
23291;DHT22;11814;44.686;10.842;2023-06-14T01:14:38;19.50;99.90
23291;DHT22;11814;44.686;10.842;2023-06-14T01:17:04;19.50;99.90
23291;DHT22;11814;44.686;10.842;2023-06-14T01:19:31;19.40;99.90
23291;DHT22;11814;44.686;10.842;2023-06-14T01:22:01;19.40;99.90
23291;DHT22;11814;44.686;10.842;2023-06-14T01:24:27;19.40;99.90
23291;DHT22;11814;44.686;10.842;2023-06-14T01:26:57;19.40;99.90
23291;DHT22;11814;44.686;10.842;2023-06-14T01:29:25;19.40;99.90
23291;DHT22;11814;44.686;10.842;2023-06-14T01:31:50;19.40;99.90
23291;DHT22;11814;44.686;10.842;2023-06-14T01:34:16;19.40;99.90
23291;DHT22;11814;44.686;10.842;2023-06-14T01:36:44;19.40;99.90
23291;DHT22;11814;44.686;10.842;2023-06-14T01:39:14;19.40;99.90
23291;DHT22;11814;44.686;10.842;2023-06-14T01:41:41;19.40;99.90
23291;DHT22;11814;44.686;10.842;2023-06-14T01:44:08;19.40;99.90
23291;DHT22;11814;44.686;10.842;2023-06-14T01:46:35;19.40;99.90
23291;DHT22;11814;44.686;10.842;2023-06-14T01:49:01;19.40;99.90
23291;DHT22;11814;44.686;10.842;2023-06-14T01:51:27;19.40;99.90
23291;DHT22;11814;44.686;10.842;2023-06-14T01:53:53;19.30;99.90
23291;DHT22;11814;44.686;10.842;2023-06-14T01:56:19;19.30;99.90
23291;DHT22;11814;44.686;10.842;2023-06-14T01:58:45;19.30;99.90
23291;DHT22;11814;44.686;10.842;2023-06-14T02:01:11;19.30;99.90
23291;DHT22;11814;44.686;10.842;2023-06-14T02:03:38;19.30;99.90
23291;DHT22;11814;44.686;10.842;2023-06-14T02:06:04;19.30;99.90
23291;DHT22;11814;44.686;10.842;2023-06-14T02:08:30;19.30;99.90
23291;DHT22;11814;44.686;10.842;2023-06-14T02:10:55;19.30;99.90
23291;DHT22;11814;44.686;10.842;2023-06-14T02:13:21;19.20;99.90
23291;DHT22;11814;44.686;10.842;2023-06-14T02:15:47;19.20;99.90
23291;DHT22;11814;44.686;10.842;2023-06-14T02:18:16;19.20;99.90
23291;DHT22;11814;44.686;10.842;2023-06-14T02:20:42;19.10;99.90
23291;DHT22;11814;44.686;10.842;2023-06-14T02:23:08;19.10;99.90
23291;DHT22;11814;44.686;10.842;2023-06-14T02:25:33;19.10;99.90
23291;DHT22;11814;44.686;10.842;2023-06-14T02:28:00;19.10;99.90
23291;DHT22;11814;44.686;10.842;2023-06-14T02:30:26;19.00;99.90
23291;DHT22;11814;44.686;10.842;2023-06-14T02:32:51;19.00;99.90
23291;DHT22;11814;44.686;10.842;2023-06-14T02:35:18;19.00;99.90
23291;DHT22;11814;44.686;10.842;2023-06-14T02:37:45;18.90;99.90
23291;DHT22;11814;44.686;10.842;2023-06-14T02:40:12;19.00;99.90
23291;DHT22;11814;44.686;10.842;2023-06-14T02:42:37;18.90;99.90
23291;DHT22;11814;44.686;10.842;2023-06-14T02:45:03;18.80;99.90
23291;DHT22;11814;44.686;10.842;2023-06-14T02:47:29;18.80;99.90
23291;DHT22;11814;44.686;10.842;2023-06-14T02:49:55;18.70;99.90
23291;DHT22;11814;44.686;10.842;2023-06-14T02:52:21;18.70;99.90
23291;DHT22;11814;44.686;10.842;2023-06-14T02:54:47;18.80;99.90
23291;DHT22;11814;44.686;10.842;2023-06-14T02:57:13;18.80;99.90
23291;DHT22;11814;44.686;10.842;2023-06-14T02:59:39;18.70;99.90
23291;DHT22;11814;44.686;10.842;2023-06-14T03:02:05;18.70;99.90
23291;DHT22;11814;44.686;10.842;2023-06-14T03:04:30;18.70;99.90
23291;DHT22;11814;44.686;10.842;2023-06-14T03:07:03;18.70;99.90
23291;DHT22;11814;44.686;10.842;2023-06-14T03:09:38;18.60;99.90
23291;DHT22;11814;44.686;10.842;2023-06-14T03:12:05;18.60;99.90
23291;DHT22;11814;44.686;10.842;2023-06-14T03:14:32;18.60;99.90
23291;DHT22;11814;44.686;10.842;2023-06-14T03:16:58;18.60;99.90
23291;DHT22;11814;44.686;10.842;2023-06-14T03:19:24;18.50;99.90
23291;DHT22;11814;44.686;10.842;2023-06-14T03:21:52;18.50;99.90
23291;DHT22;11814;44.686;10.842;2023-06-14T03:24:19;18.50;99.90
23291;DHT22;11814;44.686;10.842;2023-06-14T03:26:45;18.50;99.90
23291;DHT22;11814;44.686;10.842;2023-06-14T03:29:11;18.40;99.90
23291;DHT22;11814;44.686;10.842;2023-06-14T03:31:59;18.50;99.90
23291;DHT22;11814;44.686;10.842;2023-06-14T03:34:26;18.50;99.90
23291;DHT22;11814;44.686;10.842;2023-06-14T03:36:52;18.50;99.90
23291;DHT22;11814;44.686;10.842;2023-06-14T03:39:18;18.50;99.90
23291;DHT22;11814;44.686;10.842;2023-06-14T03:41:44;18.50;99.90
23291;DHT22;11814;44.686;10.842;2023-06-14T03:44:10;18.50;99.90
23291;DHT22;11814;44.686;10.842;2023-06-14T03:46:36;18.50;99.90
23291;DHT22;11814;44.686;10.842;2023-06-14T03:49:01;18.50;99.90
23291;DHT22;11814;44.686;10.842;2023-06-14T03:51:28;18.50;99.90
23291;DHT22;11814;44.686;10.842;2023-06-14T03:53:54;18.50;99.90
23291;DHT22;11814;44.686;10.842;2023-06-14T03:56:21;18.50;99.90
23291;DHT22;11814;44.686;10.842;2023-06-14T03:58:47;18.50;99.90
23291;DHT22;11814;44.686;10.842;2023-06-14T04:01:13;18.60;99.90
23291;DHT22;11814;44.686;10.842;2023-06-14T04:03:39;18.50;99.90
23291;DHT22;11814;44.686;10.842;2023-06-14T04:06:06;18.50;99.90
23291;DHT22;11814;44.686;10.842;2023-06-14T04:08:32;18.50;99.90
23291;DHT22;11814;44.686;10.842;2023-06-14T04:10:57;18.50;99.90
23291;DHT22;11814;44.686;10.842;2023-06-14T04:13:23;18.60;99.90
23291;DHT22;11814;44.686;10.842;2023-06-14T04:15:49;18.60;99.90
23291;DHT22;11814;44.686;10.842;2023-06-14T04:18:15;18.60;99.90
23291;DHT22;11814;44.686;10.842;2023-06-14T04:20:40;18.60;99.90
23291;DHT22;11814;44.686;10.842;2023-06-14T04:23:16;18.50;99.90
23291;DHT22;11814;44.686;10.842;2023-06-14T04:25:46;18.60;99.90
23291;DHT22;11814;44.686;10.842;2023-06-14T04:28:15;18.60;99.90
23291;DHT22;11814;44.686;10.842;2023-06-14T04:30:43;18.70;99.90
23291;DHT22;11814;44.686;10.842;2023-06-14T04:33:10;18.70;99.90
23291;DHT22;11814;44.686;10.842;2023-06-14T04:35:36;18.70;99.90
23291;DHT22;11814;44.686;10.842;2023-06-14T04:38:03;18.70;99.90
23291;DHT22;11814;44.686;10.842;2023-06-14T04:40:30;18.80;99.90
23291;DHT22;11814;44.686;10.842;2023-06-14T04:42:56;18.80;99.90
23291;DHT22;11814;44.686;10.842;2023-06-14T04:45:23;18.90;99.90
23291;DHT22;11814;44.686;10.842;2023-06-14T04:47:49;18.90;99.90
23291;DHT22;11814;44.686;10.842;2023-06-14T04:50:17;19.00;99.90
23291;DHT22;11814;44.686;10.842;2023-06-14T04:52:43;19.00;99.90
23291;DHT22;11814;44.686;10.842;2023-06-14T04:55:09;19.10;99.90
23291;DHT22;11814;44.686;10.842;2023-06-14T04:57:35;19.10;99.90
23291;DHT22;11814;44.686;10.842;2023-06-14T05:00:01;19.10;99.90
23291;DHT22;11814;44.686;10.842;2023-06-14T05:02:30;19.00;99.90
23291;DHT22;11814;44.686;10.842;2023-06-14T05:04:56;19.10;99.90
23291;DHT22;11814;44.686;10.842;2023-06-14T05:07:22;19.10;99.90
23291;DHT22;11814;44.686;10.842;2023-06-14T05:09:49;19.20;99.90
23291;DHT22;11814;44.686;10.842;2023-06-14T05:12:15;19.20;99.90
23291;DHT22;11814;44.686;10.842;2023-06-14T05:14:44;19.20;99.90
23291;DHT22;11814;44.686;10.842;2023-06-14T05:17:10;19.30;99.90
23291;DHT22;11814;44.686;10.842;2023-06-14T05:19:35;19.30;99.90
23291;DHT22;11814;44.686;10.842;2023-06-14T05:22:01;19.30;99.90
23291;DHT22;11814;44.686;10.842;2023-06-14T05:24:28;19.40;99.90
23291;DHT22;11814;44.686;10.842;2023-06-14T05:26:56;19.40;99.90
23291;DHT22;11814;44.686;10.842;2023-06-14T05:29:22;19.50;99.90
23291;DHT22;11814;44.686;10.842;2023-06-14T05:31:48;19.50;99.90
23291;DHT22;11814;44.686;10.842;2023-06-14T05:34:13;19.50;99.90
23291;DHT22;11814;44.686;10.842;2023-06-14T05:36:39;19.60;99.90
23291;DHT22;11814;44.686;10.842;2023-06-14T05:39:05;19.60;99.90
23291;DHT22;11814;44.686;10.842;2023-06-14T05:41:32;19.60;99.90
23291;DHT22;11814;44.686;10.842;2023-06-14T05:43:58;19.70;99.90
23291;DHT22;11814;44.686;10.842;2023-06-14T05:46:25;19.70;99.90
23291;DHT22;11814;44.686;10.842;2023-06-14T05:48:55;19.70;99.90
23291;DHT22;11814;44.686;10.842;2023-06-14T05:51:21;19.70;99.90
23291;DHT22;11814;44.686;10.842;2023-06-14T05:53:48;19.80;99.90
23291;DHT22;11814;44.686;10.842;2023-06-14T05:56:14;19.90;99.90
23291;DHT22;11814;44.686;10.842;2023-06-14T05:58:41;19.90;99.90
23291;DHT22;11814;44.686;10.842;2023-06-14T06:01:07;20.00;99.90
23291;DHT22;11814;44.686;10.842;2023-06-14T06:03:33;20.00;99.90
23291;DHT22;11814;44.686;10.842;2023-06-14T06:05:59;20.00;99.90
23291;DHT22;11814;44.686;10.842;2023-06-14T06:08:25;20.00;99.90
23291;DHT22;11814;44.686;10.842;2023-06-14T06:10:51;20.10;99.90
23291;DHT22;11814;44.686;10.842;2023-06-14T06:13:17;20.10;99.90
23291;DHT22;11814;44.686;10.842;2023-06-14T06:15:42;20.10;99.90
23291;DHT22;11814;44.686;10.842;2023-06-14T06:18:08;20.10;99.90
23291;DHT22;11814;44.686;10.842;2023-06-14T06:20:34;20.20;99.90
23291;DHT22;11814;44.686;10.842;2023-06-14T06:23:00;20.30;99.90
23291;DHT22;11814;44.686;10.842;2023-06-14T06:25:26;20.40;99.90
23291;DHT22;11814;44.686;10.842;2023-06-14T06:27:53;20.50;99.90
23291;DHT22;11814;44.686;10.842;2023-06-14T06:30:20;20.70;99.90
23291;DHT22;11814;44.686;10.842;2023-06-14T06:32:46;20.80;99.90
23291;DHT22;11814;44.686;10.842;2023-06-14T06:35:12;21.20;99.90
23291;DHT22;11814;44.686;10.842;2023-06-14T06:37:39;21.60;99.90
23291;DHT22;11814;44.686;10.842;2023-06-14T06:40:05;22.00;99.90
23291;DHT22;11814;44.686;10.842;2023-06-14T06:42:32;22.40;99.90
23291;DHT22;11814;44.686;10.842;2023-06-14T06:44:58;22.60;99.90
23291;DHT22;11814;44.686;10.842;2023-06-14T06:47:23;22.60;99.90
23291;DHT22;11814;44.686;10.842;2023-06-14T06:49:50;22.60;99.90
23291;DHT22;11814;44.686;10.842;2023-06-14T06:52:16;22.60;99.90
23291;DHT22;11814;44.686;10.842;2023-06-14T06:54:42;22.60;99.90
23291;DHT22;11814;44.686;10.842;2023-06-14T06:57:07;22.50;99.90
23291;DHT22;11814;44.686;10.842;2023-06-14T06:59:34;22.50;99.90
23291;DHT22;11814;44.686;10.842;2023-06-14T07:02:00;22.40;99.90
23291;DHT22;11814;44.686;10.842;2023-06-14T07:04:25;22.40;99.90
23291;DHT22;11814;44.686;10.842;2023-06-14T07:06:51;22.30;99.90
23291;DHT22;11814;44.686;10.842;2023-06-14T07:09:17;22.30;99.90
23291;DHT22;11814;44.686;10.842;2023-06-14T07:11:45;22.30;99.90
23291;DHT22;11814;44.686;10.842;2023-06-14T07:14:11;22.50;99.90
23291;DHT22;11814;44.686;10.842;2023-06-14T07:16:37;22.70;99.90
23291;DHT22;11814;44.686;10.842;2023-06-14T07:19:03;22.70;99.90
23291;DHT22;11814;44.686;10.842;2023-06-14T07:21:29;22.80;99.90
23291;DHT22;11814;44.686;10.842;2023-06-14T07:23:56;22.80;99.90
23291;DHT22;11814;44.686;10.842;2023-06-14T07:26:22;22.80;99.90
23291;DHT22;11814;44.686;10.842;2023-06-14T07:28:48;22.80;99.90
23291;DHT22;11814;44.686;10.842;2023-06-14T07:31:15;22.80;99.90
23291;DHT22;11814;44.686;10.842;2023-06-14T07:33:41;22.80;99.90
23291;DHT22;11814;44.686;10.842;2023-06-14T07:36:08;22.80;99.90
23291;DHT22;11814;44.686;10.842;2023-06-14T07:38:33;22.80;99.90
23291;DHT22;11814;44.686;10.842;2023-06-14T07:41:00;22.80;99.90
23291;DHT22;11814;44.686;10.842;2023-06-14T07:43:26;22.80;99.90
23291;DHT22;11814;44.686;10.842;2023-06-14T07:45:51;22.80;99.90
23291;DHT22;11814;44.686;10.842;2023-06-14T07:48:18;22.80;99.90
23291;DHT22;11814;44.686;10.842;2023-06-14T07:50:44;22.80;99.90
23291;DHT22;11814;44.686;10.842;2023-06-14T07:53:09;22.80;99.90
23291;DHT22;11814;44.686;10.842;2023-06-14T07:55:35;22.80;99.90
23291;DHT22;11814;44.686;10.842;2023-06-14T07:58:06;22.80;99.90
23291;DHT22;11814;44.686;10.842;2023-06-14T08:00:32;22.80;99.90
23291;DHT22;11814;44.686;10.842;2023-06-14T08:02:58;22.80;99.90
23291;DHT22;11814;44.686;10.842;2023-06-14T08:05:27;22.80;99.90
23291;DHT22;11814;44.686;10.842;2023-06-14T08:07:53;22.80;99.90
23291;DHT22;11814;44.686;10.842;2023-06-14T08:10:20;22.80;99.90
23291;DHT22;11814;44.686;10.842;2023-06-14T08:12:46;22.90;99.90
23291;DHT22;11814;44.686;10.842;2023-06-14T08:15:11;22.90;99.90
23291;DHT22;11814;44.686;10.842;2023-06-14T08:17:37;23.00;99.90
23291;DHT22;11814;44.686;10.842;2023-06-14T08:20:03;23.00;99.90
23291;DHT22;11814;44.686;10.842;2023-06-14T08:22:30;23.00;99.90
23291;DHT22;11814;44.686;10.842;2023-06-14T08:24:59;23.10;99.90
23291;DHT22;11814;44.686;10.842;2023-06-14T08:27:26;23.10;99.90
23291;DHT22;11814;44.686;10.842;2023-06-14T08:29:52;23.00;99.90
23291;DHT22;11814;44.686;10.842;2023-06-14T08:32:18;23.00;99.90
23291;DHT22;11814;44.686;10.842;2023-06-14T08:34:44;23.10;99.90
23291;DHT22;11814;44.686;10.842;2023-06-14T08:37:09;23.10;99.90
23291;DHT22;11814;44.686;10.842;2023-06-14T08:39:36;23.20;99.90
23291;DHT22;11814;44.686;10.842;2023-06-14T08:42:02;23.20;99.90
23291;DHT22;11814;44.686;10.842;2023-06-14T08:44:29;23.20;99.90
23291;DHT22;11814;44.686;10.842;2023-06-14T08:46:59;23.10;99.90
23291;DHT22;11814;44.686;10.842;2023-06-14T08:49:26;23.10;99.90
23291;DHT22;11814;44.686;10.842;2023-06-14T08:52:00;23.10;99.90
23291;DHT22;11814;44.686;10.842;2023-06-14T08:54:27;23.10;99.90
23291;DHT22;11814;44.686;10.842;2023-06-14T08:56:56;23.10;99.90
23291;DHT22;11814;44.686;10.842;2023-06-14T08:59:31;23.20;99.90
23291;DHT22;11814;44.686;10.842;2023-06-14T09:02:05;23.20;99.90
23291;DHT22;11814;44.686;10.842;2023-06-14T09:04:32;23.30;99.90
23291;DHT22;11814;44.686;10.842;2023-06-14T09:06:58;23.30;99.90
23291;DHT22;11814;44.686;10.842;2023-06-14T09:09:24;23.50;99.90
23291;DHT22;11814;44.686;10.842;2023-06-14T09:11:51;23.50;99.90
23291;DHT22;11814;44.686;10.842;2023-06-14T09:14:18;23.60;99.90
23291;DHT22;11814;44.686;10.842;2023-06-14T09:16:44;23.80;99.90
23291;DHT22;11814;44.686;10.842;2023-06-14T09:19:23;23.90;99.90
23291;DHT22;11814;44.686;10.842;2023-06-14T09:21:49;24.00;99.90
23291;DHT22;11814;44.686;10.842;2023-06-14T09:24:15;24.20;99.90
23291;DHT22;11814;44.686;10.842;2023-06-14T09:26:41;24.40;99.90
23291;DHT22;11814;44.686;10.842;2023-06-14T09:29:07;24.50;99.90
23291;DHT22;11814;44.686;10.842;2023-06-14T09:31:35;24.60;99.90
23291;DHT22;11814;44.686;10.842;2023-06-14T09:34:02;24.70;99.90
23291;DHT22;11814;44.686;10.842;2023-06-14T09:36:28;24.80;99.90
23291;DHT22;11814;44.686;10.842;2023-06-14T09:38:58;24.80;99.90
23291;DHT22;11814;44.686;10.842;2023-06-14T09:41:37;24.90;99.90
23291;DHT22;11814;44.686;10.842;2023-06-14T09:44:05;25.10;99.90
23291;DHT22;11814;44.686;10.842;2023-06-14T09:46:32;25.10;99.90
23291;DHT22;11814;44.686;10.842;2023-06-14T09:48:58;25.20;99.90
23291;DHT22;11814;44.686;10.842;2023-06-14T09:51:25;25.30;99.90
23291;DHT22;11814;44.686;10.842;2023-06-14T09:53:53;25.40;99.90
23291;DHT22;11814;44.686;10.842;2023-06-14T09:56:41;25.50;99.90
23291;DHT22;11814;44.686;10.842;2023-06-14T09:59:09;25.50;99.80
23291;DHT22;11814;44.686;10.842;2023-06-14T10:01:46;25.50;99.00
23291;DHT22;11814;44.686;10.842;2023-06-14T10:04:14;25.60;98.90
23291;DHT22;11814;44.686;10.842;2023-06-14T10:06:43;25.70;99.00
23291;DHT22;11814;44.686;10.842;2023-06-14T10:09:11;25.80;98.70
23291;DHT22;11814;44.686;10.842;2023-06-14T10:11:37;25.90;98.20
23291;DHT22;11814;44.686;10.842;2023-06-14T10:14:10;26.00;97.70
23291;DHT22;11814;44.686;10.842;2023-06-14T10:21:49;25.80;94.90
23291;DHT22;11814;44.686;10.842;2023-06-14T10:24:20;25.80;94.00
23291;DHT22;11814;44.686;10.842;2023-06-14T10:26:54;25.90;92.70
23291;DHT22;11814;44.686;10.842;2023-06-14T10:29:20;25.80;92.10
23291;DHT22;11814;44.686;10.842;2023-06-14T10:31:50;25.80;92.20
23291;DHT22;11814;44.686;10.842;2023-06-14T10:34:26;25.80;92.50
23291;DHT22;11814;44.686;10.842;2023-06-14T10:37:03;25.90;92.40
23291;DHT22;11814;44.686;10.842;2023-06-14T10:39:29;26.00;92.50
23291;DHT22;11814;44.686;10.842;2023-06-14T10:41:57;26.10;92.30
23291;DHT22;11814;44.686;10.842;2023-06-14T10:46:56;26.00;91.60
23291;DHT22;11814;44.686;10.842;2023-06-14T10:49:43;26.20;91.70
23291;DHT22;11814;44.686;10.842;2023-06-14T10:52:14;26.20;91.00
23291;DHT22;11814;44.686;10.842;2023-06-14T10:57:51;26.30;90.90
23291;DHT22;11814;44.686;10.842;2023-06-14T11:00:18;26.40;90.40
23291;DHT22;11814;44.686;10.842;2023-06-14T11:05:55;26.40;87.90
23291;DHT22;11814;44.686;10.842;2023-06-14T11:11:09;26.40;89.30
23291;DHT22;11814;44.686;10.842;2023-06-14T11:13:39;26.50;88.90
23291;DHT22;11814;44.686;10.842;2023-06-14T11:16:15;26.50;88.60
23291;DHT22;11814;44.686;10.842;2023-06-14T11:18:42;26.60;88.50
23291;DHT22;11814;44.686;10.842;2023-06-14T11:21:08;26.70;88.60
23291;DHT22;11814;44.686;10.842;2023-06-14T11:23:36;26.80;88.90
23291;DHT22;11814;44.686;10.842;2023-06-14T11:26:02;26.80;88.50
23291;DHT22;11814;44.686;10.842;2023-06-14T11:28:39;26.80;88.60
23291;DHT22;11814;44.686;10.842;2023-06-14T11:31:05;26.80;88.90
23291;DHT22;11814;44.686;10.842;2023-06-14T11:33:31;26.70;88.80
23291;DHT22;11814;44.686;10.842;2023-06-14T11:35:57;26.80;87.90
23291;DHT22;11814;44.686;10.842;2023-06-14T11:38:25;26.80;86.70
23291;DHT22;11814;44.686;10.842;2023-06-14T11:40:51;26.80;86.30
23291;DHT22;11814;44.686;10.842;2023-06-14T11:43:17;26.90;86.90
23291;DHT22;11814;44.686;10.842;2023-06-14T11:45:48;27.00;86.30
23291;DHT22;11814;44.686;10.842;2023-06-14T11:48:13;27.00;85.30
23291;DHT22;11814;44.686;10.842;2023-06-14T11:50:39;27.10;85.00
23291;DHT22;11814;44.686;10.842;2023-06-14T11:53:05;27.10;83.90
23291;DHT22;11814;44.686;10.842;2023-06-14T11:55:39;27.00;82.50
23291;DHT22;11814;44.686;10.842;2023-06-14T11:58:06;27.10;82.50
23291;DHT22;11814;44.686;10.842;2023-06-14T12:00:32;27.10;82.90
23291;DHT22;11814;44.686;10.842;2023-06-14T12:02:58;27.10;82.90
23291;DHT22;11814;44.686;10.842;2023-06-14T12:05:24;27.00;82.90
23291;DHT22;11814;44.686;10.842;2023-06-14T12:08:02;26.90;83.20
23291;DHT22;11814;44.686;10.842;2023-06-14T12:10:29;26.80;84.00
23291;DHT22;11814;44.686;10.842;2023-06-14T12:12:58;26.70;84.30
23291;DHT22;11814;44.686;10.842;2023-06-14T12:15:27;26.70;84.10
23291;DHT22;11814;44.686;10.842;2023-06-14T12:17:54;26.70;83.70
23291;DHT22;11814;44.686;10.842;2023-06-14T12:20:20;26.70;83.60
23291;DHT22;11814;44.686;10.842;2023-06-14T12:22:54;26.70;83.30
23291;DHT22;11814;44.686;10.842;2023-06-14T12:25:32;26.70;83.00
23291;DHT22;11814;44.686;10.842;2023-06-14T12:28:07;26.70;83.40
23291;DHT22;11814;44.686;10.842;2023-06-14T12:30:34;26.80;83.60
23291;DHT22;11814;44.686;10.842;2023-06-14T12:33:02;26.90;83.20
23291;DHT22;11814;44.686;10.842;2023-06-14T12:35:28;27.00;82.80
23291;DHT22;11814;44.686;10.842;2023-06-14T12:37:53;27.10;82.50
23291;DHT22;11814;44.686;10.842;2023-06-14T12:40:19;27.10;82.30
23291;DHT22;11814;44.686;10.842;2023-06-14T12:42:45;27.10;82.00
23291;DHT22;11814;44.686;10.842;2023-06-14T12:45:14;27.00;81.80
23291;DHT22;11814;44.686;10.842;2023-06-14T12:47:40;26.90;81.40
23291;DHT22;11814;44.686;10.842;2023-06-14T12:50:06;26.90;80.90
23291;DHT22;11814;44.686;10.842;2023-06-14T12:52:32;26.80;80.50
23291;DHT22;11814;44.686;10.842;2023-06-14T12:55:04;26.80;80.90
23291;DHT22;11814;44.686;10.842;2023-06-14T12:57:30;26.70;81.00
23291;DHT22;11814;44.686;10.842;2023-06-14T12:59:56;26.80;80.90
23291;DHT22;11814;44.686;10.842;2023-06-14T13:02:22;26.80;80.80
23291;DHT22;11814;44.686;10.842;2023-06-14T13:04:50;26.80;80.40
23291;DHT22;11814;44.686;10.842;2023-06-14T13:07:16;26.80;81.00
23291;DHT22;11814;44.686;10.842;2023-06-14T13:09:42;26.80;80.90
23291;DHT22;11814;44.686;10.842;2023-06-14T13:12:12;26.80;80.20
23291;DHT22;11814;44.686;10.842;2023-06-14T13:14:39;26.90;79.30
23291;DHT22;11814;44.686;10.842;2023-06-14T13:17:07;26.90;78.30
23291;DHT22;11814;44.686;10.842;2023-06-14T13:19:33;26.90;76.90
23291;DHT22;11814;44.686;10.842;2023-06-14T13:21:59;26.80;76.20
23291;DHT22;11814;44.686;10.842;2023-06-14T13:24:24;26.80;75.70
23291;DHT22;11814;44.686;10.842;2023-06-14T13:26:50;26.80;75.90
23291;DHT22;11814;44.686;10.842;2023-06-14T13:29:16;26.80;75.60
23291;DHT22;11814;44.686;10.842;2023-06-14T13:31:42;26.80;75.00
23291;DHT22;11814;44.686;10.842;2023-06-14T13:34:08;26.80;75.40
23291;DHT22;11814;44.686;10.842;2023-06-14T13:36:33;26.90;75.20
23291;DHT22;11814;44.686;10.842;2023-06-14T13:39:00;27.00;74.70
23291;DHT22;11814;44.686;10.842;2023-06-14T13:41:28;27.20;74.30
23291;DHT22;11814;44.686;10.842;2023-06-14T13:43:57;27.30;73.60
23291;DHT22;11814;44.686;10.842;2023-06-14T13:46:24;27.40;73.30
23291;DHT22;11814;44.686;10.842;2023-06-14T13:48:50;27.50;73.10
23291;DHT22;11814;44.686;10.842;2023-06-14T13:51:15;27.50;72.50
23291;DHT22;11814;44.686;10.842;2023-06-14T13:53:45;27.60;72.30
23291;DHT22;11814;44.686;10.842;2023-06-14T13:56:10;27.60;71.90
23291;DHT22;11814;44.686;10.842;2023-06-14T13:58:38;27.60;71.60
23291;DHT22;11814;44.686;10.842;2023-06-14T14:01:03;27.50;71.10
23291;DHT22;11814;44.686;10.842;2023-06-14T14:03:29;27.60;71.40
23291;DHT22;11814;44.686;10.842;2023-06-14T14:05:56;27.70;71.50
23291;DHT22;11814;44.686;10.842;2023-06-14T14:08:21;27.80;70.70
23291;DHT22;11814;44.686;10.842;2023-06-14T14:10:47;27.70;70.30
23291;DHT22;11814;44.686;10.842;2023-06-14T14:13:13;27.60;70.60
23291;DHT22;11814;44.686;10.842;2023-06-14T14:15:39;27.50;70.70
23291;DHT22;11814;44.686;10.842;2023-06-14T14:18:05;27.40;70.60
23291;DHT22;11814;44.686;10.842;2023-06-14T14:20:31;27.30;71.20
23291;DHT22;11814;44.686;10.842;2023-06-14T14:22:57;27.40;71.60
23291;DHT22;11814;44.686;10.842;2023-06-14T14:25:23;27.50;71.40
23291;DHT22;11814;44.686;10.842;2023-06-14T14:27:48;27.70;70.40
23291;DHT22;11814;44.686;10.842;2023-06-14T14:30:14;27.70;69.70
23291;DHT22;11814;44.686;10.842;2023-06-14T14:32:42;27.70;69.50
23291;DHT22;11814;44.686;10.842;2023-06-14T14:35:08;27.80;69.50
23291;DHT22;11814;44.686;10.842;2023-06-14T14:37:34;27.90;70.40
23291;DHT22;11814;44.686;10.842;2023-06-14T14:40:00;27.90;72.10
23291;DHT22;11814;44.686;10.842;2023-06-14T14:42:26;27.80;73.80
23291;DHT22;11814;44.686;10.842;2023-06-14T14:44:52;27.60;75.30
23291;DHT22;11814;44.686;10.842;2023-06-14T14:47:18;27.50;75.80
23291;DHT22;11814;44.686;10.842;2023-06-14T14:49:43;27.30;76.60
23291;DHT22;11814;44.686;10.842;2023-06-14T14:52:09;27.20;77.20
23291;DHT22;11814;44.686;10.842;2023-06-14T14:54:35;27.10;77.90
23291;DHT22;11814;44.686;10.842;2023-06-14T14:57:01;26.90;78.30
23291;DHT22;11814;44.686;10.842;2023-06-14T14:59:27;26.80;79.30
23291;DHT22;11814;44.686;10.842;2023-06-14T15:01:53;26.80;80.30
23291;DHT22;11814;44.686;10.842;2023-06-14T15:04:19;26.70;81.00
23291;DHT22;11814;44.686;10.842;2023-06-14T15:06:44;26.70;81.90
23291;DHT22;11814;44.686;10.842;2023-06-14T15:09:10;26.60;82.60
23291;DHT22;11814;44.686;10.842;2023-06-14T15:11:36;26.60;83.00
23291;DHT22;11814;44.686;10.842;2023-06-14T15:14:02;26.70;82.80
23291;DHT22;11814;44.686;10.842;2023-06-14T15:16:27;26.70;83.20
23291;DHT22;11814;44.686;10.842;2023-06-14T15:18:53;26.70;82.10
23291;DHT22;11814;44.686;10.842;2023-06-14T15:21:19;26.70;82.10
23291;DHT22;11814;44.686;10.842;2023-06-14T15:23:48;26.60;81.90
23291;DHT22;11814;44.686;10.842;2023-06-14T15:26:14;26.50;81.80
23291;DHT22;11814;44.686;10.842;2023-06-14T15:28:39;26.40;82.10
23291;DHT22;11814;44.686;10.842;2023-06-14T15:31:05;26.30;82.10
23291;DHT22;11814;44.686;10.842;2023-06-14T15:33:31;26.20;82.20